Weather reports worldwide

Advertisment
Malaga,Cmt, Spain (8481): temperature & dewpoint: 03.08.2020 22:00:00 - 09.08.2020 22:00:00 (CEST)Malaga,Cmt, Spain (8481): wind speed & gusts: 03.08.2020 22:00:00 - 09.08.2020 22:00:00 (CEST)Malaga,Cmt, Spain (8481): wind direction: 03.08.2020 22:00:00 - 09.08.2020 22:00:00 (CEST)Malaga,Cmt, Spain (8481): reduced air pressure: 03.08.2020 22:00:00 - 09.08.2020 22:00:00 (CEST)Malaga,Cmt, Spain (8481): precipitation: 03.08.2020 22:00:00 - 09.08.2020 22:00:00 (CEST)
Date & Time tt [°C] td [°C] ff [km/h] ff [kn] fx [km/h] fx [kn] dd ppp [hPa] rr [mm]
09.08.2020 22:00:00 - - - - - - - - -
09.08.2020 21:00:00 29,7 15,8 6 3 15 8 SSE 1012,4 0,0
09.08.2020 20:00:00 30,8 14,8 8 4 17 9 SE 1012,2 -
09.08.2020 19:00:00 32,0 15,1 10 5 22 12 ESE 1012,2 0,0
09.08.2020 18:00:00 32,4 14,5 15 8 20 11 SE 1012,6 0,0
09.08.2020 17:00:00 33,7 15,7 12 6 22 12 SSE 1013,1 0,0
09.08.2020 16:00:00 33,5 16,4 13 7 23 12 SE 1013,8 0,0
09.08.2020 15:00:00 33,4 17,1 13 7 24 13 SE 1014,3 0,0
09.08.2020 14:00:00 33,4 17,1 13 7 20 11 SE 1014,7 -
09.08.2020 13:00:00 34,5 16,4 9 5 16 9 SSE 1014,9 0,0
09.08.2020 12:00:00 33,1 15,6 4 2 13 7 SSE 1015,1 0,0
09.08.2020 11:00:00 30,3 15,6 7 4 11 6 WSW 1015,4 0,0
09.08.2020 10:00:00 27,1 15,4 5 3 9 5 WSW 1016,0 0,0
09.08.2020 09:00:00 23,6 14,9 5 3 9 5 W 1016,3 0,0
09.08.2020 08:00:00 20,9 13,4 3 2 10 6 W 1016,4 -
09.08.2020 07:00:00 22,3 14,4 0 0 8 4 WNW 1016,2 0,0
09.08.2020 06:00:00 21,5 13,7 6 3 9 5 W 1016,4 0,0
09.08.2020 05:00:00 22,2 13,9 8 5 14 8 WSW 1016,3 0,0
09.08.2020 04:00:00 24,9 15,5 9 5 14 8 WNW 1016,2 0,0
09.08.2020 03:00:00 24,5 15,2 7 4 13 7 WNW 1016,3 0,0
09.08.2020 02:00:00 25,5 15,3 4 2 8 4 NW 1016,5 -
09.08.2020 01:00:00 25,5 16,9 3 2 5 3 NW 1017,0 0,0
09.08.2020 00:00:00 26,1 17,2 1 0 8 5 ESE 1017,3 0,0
08.08.2020 23:00:00 26,4 17,8 6 4 10 5 ESE 1017,1 0,0
08.08.2020 22:00:00 27,0 17,5 8 4 13 7 ESE 1016,5 0,0
08.08.2020 21:00:00 28,4 17,9 6 3 17 9 SE 1016,0 0,0
08.08.2020 20:00:00 29,5 14,5 12 6 22 12 SE 1015,8 -
08.08.2020 19:00:00 30,6 13,4 13 7 19 10 ESE 1015,9 0,0
08.08.2020 18:00:00 31,8 14,0 11 6 20 11 SE 1016,3 0,0
08.08.2020 17:00:00 32,7 13,9 12 6 21 12 SE 1016,8 0,0
08.08.2020 16:00:00 32,8 13,5 10 6 21 11 SE 1017,2 0,0
08.08.2020 15:00:00 32,6 13,8 11 6 22 12 ESE 1017,6 0,0
08.08.2020 14:00:00 33,4 13,5 13 7 22 12 SSE 1018,1 -
08.08.2020 13:00:00 32,0 13,8 13 7 20 11 SE 1018,6 0,0
08.08.2020 12:00:00 32,5 13,2 9 5 16 9 SE 1018,5 0,0
08.08.2020 11:00:00 30,9 14,5 4 2 11 6 SW 1018,4 0,0
08.08.2020 10:00:00 27,6 18,0 8 4 15 8 WSW 1018,8 0,0
08.08.2020 09:00:00 24,5 18,2 9 5 14 8 W 1019,6 0,0
08.08.2020 08:00:00 23,5 17,2 6 3 10 5 W 1019,4 -
08.08.2020 07:00:00 24,6 17,3 5 3 14 8 NNW 1018,7 0,0
08.08.2020 06:00:00 22,9 19,6 5 3 13 7 WNW 1019,0 0,0
08.08.2020 05:00:00 22,8 20,1 5 3 12 6 W 1018,2 0,0
08.08.2020 04:00:00 24,1 21,4 3 2 7 4 WNW 1018,4 0,0
08.08.2020 03:00:00 24,3 21,8 5 3 12 6 WNW 1018,7 0,0
08.08.2020 02:00:00 24,9 21,6 6 3 10 6 W 1018,8 -
08.08.2020 01:00:00 25,3 22,6 6 3 9 5 NNE 1019,0 0,0
08.08.2020 00:00:00 25,4 22,3 1 1 8 5 SW 1019,4 0,0
07.08.2020 23:00:00 25,9 22,6 4 2 8 4 SW 1018,6 0,0
07.08.2020 22:00:00 26,0 22,3 5 3 13 7 ESE 1017,7 0,0
07.08.2020 21:00:00 26,9 22,3 10 5 16 9 SE 1017,4 0,0
07.08.2020 20:00:00 27,9 21,4 10 6 22 12 ESE 1016,7 -
07.08.2020 19:00:00 29,1 21,6 12 7 23 12 SSE 1016,8 0,0
07.08.2020 18:00:00 30,3 21,1 13 7 23 12 SSE 1016,9 0,0
07.08.2020 17:00:00 30,7 21,8 12 7 23 12 SSE 1017,0 0,0
07.08.2020 16:00:00 30,3 22,0 14 7 24 13 SE 1017,5 0,0
07.08.2020 15:00:00 30,9 22,0 15 8 26 14 SSE 1017,9 0,0
07.08.2020 14:00:00 30,8 21,8 14 7 23 12 SE 1018,0 -
07.08.2020 13:00:00 30,5 22,1 14 7 25 13 SSE 1018,0 0,0
07.08.2020 12:00:00 30,2 22,1 14 7 21 11 S 1017,9 0,0
07.08.2020 11:00:00 29,4 22,1 3 2 13 7 S 1017,6 0,0
07.08.2020 10:00:00 27,5 22,4 5 3 11 6 SW 1017,5 0,0
07.08.2020 09:00:00 25,6 21,7 2 1 5 3 W 1017,1 0,0
07.08.2020 08:00:00 24,2 20,5 0 0 4 2 NNW 1016,7 -
07.08.2020 07:00:00 24,0 20,3 0 0 5 3 N 1016,2 0,0
07.08.2020 06:00:00 24,5 20,2 2 1 7 4 NW 1015,7 0,0
07.08.2020 05:00:00 25,1 20,8 3 2 8 4 NW 1015,6 0,0
07.08.2020 04:00:00 25,5 21,2 3 1 8 5 NNW 1015,8 0,0
07.08.2020 03:00:00 25,7 20,7 4 2 7 4 W 1016,5 0,0
07.08.2020 02:00:00 26,1 20,7 3 2 10 5 SSE 1016,8 -
07.08.2020 01:00:00 26,5 20,8 6 4 20 11 SSE 1016,6 0,0
07.08.2020 00:00:00 26,8 19,6 11 6 20 11 ESE 1016,5 0,0
06.08.2020 23:00:00 27,2 18,2 9 5 18 10 ESE 1016,4 0,0
06.08.2020 22:00:00 27,3 17,8 10 5 18 10 SSE 1015,6 0,0
06.08.2020 21:00:00 28,1 16,7 11 6 21 11 SE 1014,3 0,0
06.08.2020 20:00:00 29,8 17,3 11 6 23 13 SSE 1013,7 -
06.08.2020 19:00:00 30,4 17,1 14 8 27 14 SE 1013,4 0,0
06.08.2020 18:00:00 31,0 17,3 14 8 26 14 SE 1013,3 0,0
06.08.2020 17:00:00 31,8 17,7 16 9 31 17 SE 1013,4 0,0
06.08.2020 16:00:00 32,1 18,3 11 6 23 12 SE 1013,9 0,0
06.08.2020 15:00:00 31,9 18,2 12 7 26 14 SSE 1014,3 0,0
06.08.2020 14:00:00 31,2 18,2 13 7 26 14 ESE 1014,5 -
06.08.2020 13:00:00 32,0 18,9 11 6 23 13 ESE 1014,3 0,0
06.08.2020 12:00:00 31,6 19,6 11 6 22 12 SE 1014,2 0,0
06.08.2020 11:00:00 30,6 19,9 4 2 12 6 SSW 1014,0 0,0
06.08.2020 10:00:00 28,3 20,3 6 3 10 5 WSW 1013,7 0,0
06.08.2020 09:00:00 24,6 19,0 8 4 11 6 W 1013,7 0,0
06.08.2020 08:00:00 23,0 18,5 4 2 8 4 W 1013,6 -
06.08.2020 07:00:00 24,3 19,8 2 1 6 4 NNW 1013,0 0,0
06.08.2020 06:00:00 24,2 19,3 2 1 10 5 NW 1012,7 0,0
06.08.2020 05:00:00 24,5 19,6 4 2 6 4 WNW 1012,8 0,0
06.08.2020 04:00:00 24,8 19,8 3 1 5 3 WNW 1012,7 0,0
06.08.2020 03:00:00 25,6 20,4 4 2 6 3 NW 1012,9 0,0
06.08.2020 02:00:00 25,6 20,4 1 1 7 4 SW 1013,1 -
06.08.2020 01:00:00 25,7 20,5 1 1 4 2 S 1013,0 0,0
06.08.2020 00:00:00 26,0 20,3 2 1 6 3 S 1012,5 0,0
05.08.2020 23:00:00 26,4 20,0 4 2 8 5 S 1012,3 0,0
05.08.2020 22:00:00 27,1 19,7 5 3 13 7 S 1011,5 0,0
05.08.2020 21:00:00 28,4 18,5 6 3 13 7 SE 1010,9 0,0
05.08.2020 20:00:00 29,8 18,2 9 5 19 10 SSE 1010,6 -
05.08.2020 19:00:00 30,3 18,1 11 6 22 12 SE 1010,7 0,0
05.08.2020 18:00:00 31,3 18,6 12 7 23 13 SE 1010,7 0,0
05.08.2020 17:00:00 30,9 17,6 15 8 24 13 SE 1010,9 0,0
05.08.2020 16:00:00 32,0 17,9 14 7 25 13 SE 1011,1 0,0
05.08.2020 15:00:00 31,4 18,0 16 9 25 13 ESE 1011,7 0,0
05.08.2020 14:00:00 31,4 18,8 16 9 26 14 SE 1012,2 -
05.08.2020 13:00:00 31,7 20,0 13 7 21 12 SSE 1012,4 0,0
05.08.2020 12:00:00 30,7 19,1 12 6 21 12 SE 1012,6 0,0
05.08.2020 11:00:00 29,9 19,9 11 6 18 10 SE 1012,5 0,0
05.08.2020 10:00:00 27,9 23,5 4 2 10 5 W 1012,7 0,0
05.08.2020 09:00:00 25,7 24,1 4 2 8 4 W 1012,4 0,0
05.08.2020 08:00:00 25,3 23,9 4 2 8 4 WSW 1012,3 -
05.08.2020 07:00:00 25,6 24,0 5 3 9 5 S 1012,2 0,0
05.08.2020 06:00:00 26,0 24,4 4 2 8 4 SSE 1012,0 0,0
05.08.2020 05:00:00 25,6 24,0 3 2 6 3 SSW 1012,3 0,0
05.08.2020 04:00:00 25,6 24,0 1 1 5 3 W 1012,3 0,0
05.08.2020 03:00:00 25,7 24,1 5 3 6 3 WSW 1012,6 0,0
05.08.2020 02:00:00 25,8 24,2 3 2 13 7 SE 1012,9 -
05.08.2020 01:00:00 26,1 24,5 7 4 13 7 SE 1012,9 0,0
05.08.2020 00:00:00 26,1 24,0 8 4 13 7 SE 1012,7 0,0
04.08.2020 23:00:00 26,7 23,0 9 5 13 7 SE 1012,3 0,0
04.08.2020 22:00:00 27,3 21,3 7 4 12 6 ESE 1011,8 0,0
04.08.2020 21:00:00 28,2 20,7 8 4 15 8 SE 1011,4 0,0
04.08.2020 20:00:00 29,5 21,2 9 5 16 9 SSE 1011,2 -
04.08.2020 19:00:00 29,9 22,6 9 5 18 10 SE 1011,5 0,0
04.08.2020 18:00:00 29,9 22,6 10 5 21 11 ESE 1011,7 0,0
04.08.2020 17:00:00 30,8 23,2 13 7 23 13 SSE 1012,2 0,0
04.08.2020 16:00:00 30,4 22,8 14 7 27 14 SSE 1012,7 0,0
04.08.2020 15:00:00 30,2 23,6 11 6 26 14 SE 1013,2 0,0
04.08.2020 14:00:00 29,1 24,0 13 7 27 15 ESE 1013,7 -
04.08.2020 13:00:00 28,9 24,2 16 9 26 14 ESE 1013,7 0,0
04.08.2020 12:00:00 28,6 24,2 16 8 28 15 SE 1013,7 0,0
04.08.2020 11:00:00 28,2 23,6 11 6 25 13 SE 1013,5 0,0
04.08.2020 10:00:00 27,3 23,3 3 1 8 4 SE 1013,2 0,0
04.08.2020 09:00:00 25,9 23,2 1 0 8 4 N 1012,7 0,0
04.08.2020 08:00:00 25,5 23,6 4 2 6 3 N 1012,3 -
04.08.2020 07:00:00 25,5 23,9 0 0 9 5 NNW 1012,2 0,0
04.08.2020 06:00:00 25,8 24,2 3 1 10 5 SE 1011,9 0,0
04.08.2020 05:00:00 25,6 24,0 3 2 11 6 SE 1011,8 0,0
04.08.2020 04:00:00 25,8 23,9 7 4 17 9 SE 1012,0 0,0
04.08.2020 03:00:00 26,1 24,0 10 5 21 11 ESE 1012,0 0,0
04.08.2020 02:00:00 26,9 22,3 6 3 14 7 SSE 1012,0 -
04.08.2020 01:00:00 27,8 19,8 3 2 13 7 ESE 1011,8 0,0
04.08.2020 00:00:00 28,1 20,7 8 5 17 9 ESE 1011,5 0,0
03.08.2020 23:00:00 28,1 20,1 6 4 16 9 ESE 1010,9 0,0
03.08.2020 22:00:00 28,5 16,7 7 4 16 9 SE 1009,9 0,0

tt = temperature
td = dewpoint
ff = wind speed
fx = gusts
dd = wind direction
ppp = reduced air pressure
rr = precipitation

Next stations